createdAt,value
2023-02-23T00:02:26.826Z,-15.61
2023-02-23T00:04:53.675Z,-15.54
2023-02-23T00:07:20.527Z,-15.45
2023-02-23T00:09:47.403Z,-15.58
2023-02-23T00:12:14.429Z,-15.54
2023-02-23T00:14:41.268Z,-15.50
2023-02-23T00:17:08.280Z,-15.43
2023-02-23T00:19:35.239Z,-15.20
2023-02-23T00:22:02.248Z,-15.50
2023-02-23T00:24:29.218Z,-15.45
2023-02-23T00:26:56.227Z,-15.28
2023-02-23T00:29:24.474Z,-15.34
2023-02-23T00:31:52.482Z,-15.32
2023-02-23T00:34:21.655Z,-15.19
2023-02-23T00:36:54.756Z,-15.22
2023-02-23T00:39:23.830Z,-15.42
2023-02-23T00:41:51.475Z,-15.37
2023-02-23T00:44:19.124Z,-15.19
2023-02-23T00:46:46.299Z,-15.13
2023-02-23T00:49:13.663Z,-15.10
2023-02-23T00:51:41.494Z,-15.37
2023-02-23T00:54:11.076Z,-15.16
2023-02-23T00:56:38.824Z,-15.40
2023-02-23T00:59:06.332Z,-15.53
2023-02-23T01:01:33.964Z,-15.57
2023-02-23T01:04:02.133Z,-15.63
2023-02-23T01:06:30.854Z,-15.60
2023-02-23T01:08:58.036Z,-15.41
2023-02-23T01:11:27.482Z,-15.73
2023-02-23T01:13:57.419Z,-15.54
2023-02-23T01:16:27.994Z,-15.61
2023-02-23T01:18:57.488Z,-15.89
2023-02-23T01:21:36.661Z,-16.02
2023-02-23T01:24:04.224Z,-15.91
2023-02-23T01:26:35.106Z,-15.82
2023-02-23T01:29:22.566Z,-15.60
2023-02-23T01:31:50.930Z,-15.86
2023-02-23T01:34:19.777Z,-15.88
2023-02-23T01:36:46.700Z,-15.65
2023-02-23T01:39:16.337Z,-15.63
2023-02-23T01:41:44.041Z,-15.50
2023-02-23T01:44:13.947Z,-15.60
2023-02-23T01:46:43.531Z,-15.42
2023-02-23T01:49:16.136Z,-15.46
2023-02-23T01:51:47.917Z,-15.66
2023-02-23T01:54:21.532Z,-15.58
2023-02-23T01:56:53.760Z,-15.52
2023-02-23T01:59:21.500Z,-15.63
2023-02-23T02:01:48.490Z,-15.37
2023-02-23T02:04:16.106Z,-15.32
2023-02-23T02:06:47.172Z,-15.36
2023-02-23T02:09:18.012Z,-15.40
2023-02-23T02:11:45.175Z,-15.37
2023-02-23T02:14:23.510Z,-15.27
2023-02-23T02:17:11.617Z,-15.45
2023-02-23T02:19:47.638Z,-15.24
2023-02-23T02:22:41.355Z,-15.46
2023-02-23T02:25:50.279Z,-15.38
2023-02-23T02:28:47.170Z,-15.52
2023-02-23T02:31:32.829Z,-15.75
2023-02-23T02:34:55.444Z,-15.59
2023-02-23T02:37:27.261Z,-15.61
2023-02-23T02:40:10.318Z,-15.68
2023-02-23T02:42:48.739Z,-15.57
2023-02-23T02:45:42.083Z,-15.70
2023-02-23T02:48:24.119Z,-15.70
2023-02-23T02:50:58.364Z,-15.86
2023-02-23T02:53:54.522Z,-15.79
2023-02-23T02:56:25.500Z,-15.78
2023-02-23T02:58:54.104Z,-15.64
2023-02-23T03:01:21.602Z,-15.80
2023-02-23T03:03:50.753Z,-15.47
2023-02-23T03:06:22.249Z,-15.70
2023-02-23T03:09:02.050Z,-15.68
2023-02-23T03:12:13.328Z,-15.92
2023-02-23T03:15:08.971Z,-15.75
2023-02-23T03:17:47.869Z,-15.96
2023-02-23T03:20:20.013Z,-15.95
2023-02-23T03:23:22.091Z,-15.88
2023-02-23T03:25:59.328Z,-15.99
2023-02-23T03:28:34.878Z,-15.87
2023-02-23T03:31:20.463Z,-15.92
2023-02-23T03:34:14.754Z,-15.64
2023-02-23T03:36:48.065Z,-15.74
2023-02-23T03:39:28.603Z,-15.88
2023-02-23T03:41:59.103Z,-16.00
2023-02-23T03:44:32.682Z,-16.04
2023-02-23T03:47:03.474Z,-15.83
2023-02-23T03:49:36.631Z,-15.91
2023-02-23T03:52:13.828Z,-15.92
2023-02-23T03:54:47.919Z,-15.87
2023-02-23T03:57:19.007Z,-15.77
2023-02-23T04:00:04.542Z,-15.89
2023-02-23T04:02:42.812Z,-15.88
2023-02-23T04:05:16.264Z,-15.99
2023-02-23T04:07:47.575Z,-15.96
2023-02-23T04:10:14.618Z,-15.87
2023-02-23T04:13:00.899Z,-16.07
2023-02-23T04:15:33.118Z,-16.03
2023-02-23T04:18:00.297Z,-16.09
2023-02-23T04:20:27.678Z,-16.12
2023-02-23T04:22:54.835Z,-16.02
2023-02-23T04:25:21.860Z,-16.12
2023-02-23T04:27:50.263Z,-16.06
2023-02-23T04:30:17.757Z,-16.05
2023-02-23T04:32:45.024Z,-16.12
2023-02-23T04:35:13.391Z,-16.13
2023-02-23T04:37:40.356Z,-16.11
2023-02-23T04:40:08.077Z,-16.12
2023-02-23T04:42:35.076Z,-15.69
2023-02-23T04:45:01.957Z,-15.81
2023-02-23T04:47:28.922Z,-15.53
2023-02-23T04:49:55.766Z,-15.67
2023-02-23T04:52:22.823Z,-15.61
2023-02-23T04:54:49.740Z,-15.66
2023-02-23T04:57:16.822Z,-15.81
2023-02-23T04:59:43.967Z,-15.53
2023-02-23T05:02:11.035Z,-15.39
2023-02-23T05:04:38.023Z,-15.48
2023-02-23T05:07:05.509Z,-15.31
2023-02-23T05:09:32.528Z,-14.96
2023-02-23T05:11:59.929Z,-14.95
2023-02-23T05:14:26.989Z,-14.89
2023-02-23T05:16:54.155Z,-14.85
2023-02-23T05:19:22.121Z,-14.87
2023-02-23T05:21:49.117Z,-14.75
2023-02-23T05:24:16.675Z,-14.82
2023-02-23T05:26:44.449Z,-14.63
2023-02-23T05:29:12.290Z,-14.43
2023-02-23T05:31:42.500Z,-14.12
2023-02-23T05:34:09.501Z,-14.13
2023-02-23T05:36:38.946Z,-14.03
2023-02-23T05:39:06.078Z,-14.21
2023-02-23T05:41:33.069Z,-14.18
2023-02-23T05:44:00.009Z,-14.03
2023-02-23T05:46:28.073Z,-13.92
2023-02-23T05:49:01.960Z,-13.99
2023-02-23T05:51:31.853Z,-13.61
2023-02-23T05:53:58.834Z,-13.80
2023-02-23T05:56:25.879Z,-13.56
2023-02-23T05:58:55.199Z,-13.13
2023-02-23T06:01:27.611Z,-13.08
2023-02-23T06:03:54.801Z,-12.58
2023-02-23T06:06:22.316Z,-12.63
2023-02-23T06:08:51.993Z,-12.46
2023-02-23T06:11:19.378Z,-12.68
2023-02-23T06:13:46.580Z,-12.41
2023-02-23T06:16:13.734Z,-12.48
2023-02-23T06:18:40.879Z,-12.25
2023-02-23T06:21:07.759Z,-12.14
2023-02-23T06:23:34.787Z,-11.95
2023-02-23T06:26:02.916Z,-11.91
2023-02-23T06:28:30.576Z,-11.89
2023-02-23T06:31:02.328Z,-11.94
2023-02-23T06:33:29.884Z,-11.71
2023-02-23T06:35:56.900Z,-11.51
2023-02-23T06:38:23.990Z,-11.31
2023-02-23T06:40:51.048Z,-11.32
2023-02-23T06:43:18.087Z,-10.77
2023-02-23T06:45:47.168Z,-11.06
2023-02-23T06:48:14.489Z,-10.41
2023-02-23T06:50:41.520Z,-10.24
2023-02-23T06:53:08.588Z,-10.60
2023-02-23T06:55:35.515Z,-10.48
2023-02-23T06:58:02.528Z,-10.61
2023-02-23T07:00:29.432Z,-9.86
2023-02-23T07:02:57.580Z,-9.92
2023-02-23T07:05:24.501Z,-10.34
2023-02-23T07:07:51.647Z,-10.29
2023-02-23T07:10:18.725Z,-10.42
2023-02-23T07:12:48.589Z,-10.26
2023-02-23T07:15:15.659Z,-9.90
2023-02-23T07:17:42.783Z,-10.02
2023-02-23T07:20:10.821Z,-9.21
2023-02-23T07:22:39.775Z,-9.43
2023-02-23T07:25:07.601Z,-9.62
2023-02-23T07:27:34.605Z,-9.31
2023-02-23T07:30:05.152Z,-8.63
2023-02-23T07:32:32.835Z,-8.43
2023-02-23T07:35:00.011Z,-8.49
2023-02-23T07:37:27.251Z,-8.47
2023-02-23T07:39:54.389Z,-8.10
2023-02-23T07:42:21.476Z,-7.69
2023-02-23T07:44:48.435Z,-7.97
2023-02-23T07:47:18.287Z,-8.33
2023-02-23T07:49:45.127Z,-8.04
2023-02-23T07:52:12.070Z,-7.64
2023-02-23T07:54:38.989Z,-7.79
2023-02-23T07:57:05.978Z,-7.03
2023-02-23T07:59:32.922Z,-7.47
2023-02-23T08:01:59.950Z,-7.46
2023-02-23T08:04:26.994Z,-8.27
2023-02-23T08:06:54.300Z,-7.77
2023-02-23T08:09:22.505Z,-7.38
2023-02-23T08:11:49.735Z,-7.94
2023-02-23T08:14:16.606Z,-7.69
2023-02-23T08:16:43.614Z,-7.68
2023-02-23T08:19:10.597Z,-7.42
2023-02-23T08:21:40.063Z,-7.34
2023-02-23T08:24:07.395Z,-6.71
2023-02-23T08:26:36.501Z,-6.05
2023-02-23T08:29:04.204Z,-6.34
2023-02-23T08:31:31.448Z,-7.29
2023-02-23T08:33:58.585Z,-7.84
2023-02-23T08:36:25.908Z,-7.68
2023-02-23T08:38:53.084Z,-7.56
2023-02-23T08:41:21.540Z,-7.68
2023-02-23T08:43:48.602Z,-7.38
2023-02-23T08:46:15.741Z,-7.79
2023-02-23T08:48:42.631Z,-7.24
2023-02-23T08:51:09.698Z,-7.62
2023-02-23T08:53:36.946Z,-7.18
2023-02-23T08:56:09.335Z,-7.57
2023-02-23T08:58:37.193Z,-7.76
2023-02-23T09:01:05.276Z,-7.24
2023-02-23T09:03:35.267Z,-7.19
2023-02-23T09:06:11.553Z,-7.34
2023-02-23T09:08:38.729Z,-7.55
2023-02-23T09:11:06.458Z,-7.40
2023-02-23T09:13:34.036Z,-7.68
2023-02-23T09:16:01.007Z,-7.73
2023-02-23T09:18:28.076Z,-7.44
2023-02-23T09:20:56.244Z,-7.32
2023-02-23T09:23:23.436Z,-7.79
2023-02-23T09:25:50.678Z,-7.61
2023-02-23T09:28:20.374Z,-8.10
2023-02-23T09:30:47.576Z,-8.33
2023-02-23T09:33:14.836Z,-8.22
2023-02-23T09:35:43.010Z,-8.45
2023-02-23T09:38:10.324Z,-8.04
2023-02-23T09:40:45.027Z,-8.05
2023-02-23T09:43:14.753Z,-8.47
2023-02-23T09:45:48.123Z,-8.73
2023-02-23T09:48:19.481Z,-8.45
2023-02-23T09:50:54.182Z,-8.32
2023-02-23T09:53:34.070Z,-8.54
2023-02-23T09:56:10.516Z,-8.76
2023-02-23T09:58:38.439Z,-8.39
2023-02-23T10:01:08.585Z,-8.43
2023-02-23T10:03:40.831Z,-8.70
2023-02-23T10:06:11.449Z,-8.42
2023-02-23T10:08:46.832Z,-8.17
2023-02-23T10:11:50.110Z,-7.66
2023-02-23T10:14:32.986Z,-8.23
2023-02-23T10:17:29.257Z,-8.17
2023-02-23T10:19:59.287Z,-8.38
2023-02-23T10:22:28.558Z,-8.28
2023-02-23T10:24:57.584Z,-8.06
2023-02-23T10:27:32.694Z,-8.05
2023-02-23T10:30:02.402Z,-8.00
2023-02-23T10:32:46.326Z,-7.91
2023-02-23T10:35:16.790Z,-7.85
2023-02-23T10:37:45.426Z,-8.29
2023-02-23T10:40:22.200Z,-8.04
2023-02-23T10:42:50.512Z,-7.88
2023-02-23T10:45:21.630Z,-7.98
2023-02-23T10:47:59.481Z,-8.08
2023-02-23T10:50:27.689Z,-7.60
2023-02-23T10:53:24.226Z,-7.90
2023-02-23T10:56:21.292Z,-8.10
2023-02-23T10:59:06.449Z,-7.91
2023-02-23T11:01:55.473Z,-8.02
2023-02-23T11:04:31.130Z,-8.12
2023-02-23T11:07:12.108Z,-8.15
2023-02-23T11:09:47.191Z,-8.15
2023-02-23T11:12:40.678Z,-8.47
2023-02-23T11:15:48.137Z,-7.92
2023-02-23T11:18:23.047Z,-8.37
2023-02-23T11:20:51.935Z,-8.26
2023-02-23T11:23:25.706Z,-8.37
2023-02-23T11:25:54.812Z,-8.35
2023-02-23T11:28:26.500Z,-8.53
2023-02-23T11:30:53.704Z,-8.29
2023-02-23T11:33:27.981Z,-8.45
2023-02-23T11:36:00.312Z,-8.62
2023-02-23T11:38:30.330Z,-8.57
2023-02-23T11:41:06.912Z,-8.34
2023-02-23T11:43:33.958Z,-8.36
2023-02-23T11:46:02.826Z,-8.47
2023-02-23T11:48:57.179Z,-8.16
2023-02-23T11:51:29.454Z,-8.29
2023-02-23T11:53:57.252Z,-8.05
2023-02-23T11:56:26.279Z,-8.33
2023-02-23T11:58:57.177Z,-8.24
2023-02-23T12:01:35.153Z,-8.42
2023-02-23T12:04:02.485Z,-8.55
2023-02-23T12:06:41.560Z,-8.35
2023-02-23T12:09:23.829Z,-8.45
2023-02-23T12:12:13.228Z,-8.43
2023-02-23T12:14:49.268Z,-8.27
2023-02-23T12:17:21.670Z,-8.38
2023-02-23T12:19:57.201Z,-8.47
2023-02-23T12:22:32.237Z,-8.73
2023-02-23T12:24:59.289Z,-8.65
2023-02-23T12:27:39.631Z,-8.69
2023-02-23T12:30:20.131Z,-8.66
2023-02-23T12:33:21.347Z,-8.64
2023-02-23T12:35:48.427Z,-8.60
2023-02-23T12:38:50.965Z,-8.86
2023-02-23T12:41:27.065Z,-8.45
2023-02-23T12:44:10.722Z,-8.70
2023-02-23T12:46:46.539Z,-8.78
2023-02-23T12:49:32.205Z,-9.06
2023-02-23T12:52:21.167Z,-8.98
2023-02-23T12:54:48.500Z,-8.95
2023-02-23T12:57:35.432Z,-8.85
2023-02-23T13:00:21.266Z,-8.75
2023-02-23T13:03:12.983Z,-9.04
2023-02-23T13:05:52.828Z,-8.99
2023-02-23T13:08:28.047Z,-9.14
2023-02-23T13:11:05.310Z,-9.13
2023-02-23T13:13:46.340Z,-9.16
2023-02-23T13:16:29.293Z,-9.25
2023-02-23T13:19:24.084Z,-9.42
2023-02-23T13:22:00.195Z,-9.27
2023-02-23T13:24:36.499Z,-9.47
2023-02-23T13:27:39.103Z,-9.42
2023-02-23T13:30:10.767Z,-9.40
2023-02-23T13:32:39.054Z,-9.60
2023-02-23T13:35:13.263Z,-9.51
2023-02-23T13:37:54.423Z,-9.65
2023-02-23T13:40:28.442Z,-9.84
2023-02-23T13:43:16.664Z,-9.85
2023-02-23T13:45:52.640Z,-9.84
2023-02-23T13:49:02.562Z,-9.73
2023-02-23T13:51:37.935Z,-9.93
2023-02-23T13:54:14.125Z,-9.90
2023-02-23T13:56:47.064Z,-9.94
2023-02-23T13:59:20.975Z,-10.14
2023-02-23T14:01:52.143Z,-10.13
2023-02-23T14:04:28.219Z,-10.20
2023-02-23T14:07:09.727Z,-10.17
2023-02-23T14:09:56.863Z,-10.40
2023-02-23T14:12:36.317Z,-10.25
2023-02-23T14:15:25.507Z,-10.19
2023-02-23T14:18:03.073Z,-10.47
2023-02-23T14:20:38.862Z,-10.46
2023-02-23T14:23:28.296Z,-10.42
2023-02-23T14:26:24.453Z,-10.52
2023-02-23T14:29:17.111Z,-10.62
2023-02-23T14:31:55.474Z,-10.57
2023-02-23T14:34:23.015Z,-10.78
2023-02-23T14:36:51.382Z,-10.80
2023-02-23T14:39:29.532Z,-10.71
2023-02-23T14:41:59.979Z,-10.78
2023-02-23T14:44:32.533Z,-10.83
2023-02-23T14:47:13.259Z,-10.94
2023-02-23T14:49:54.666Z,-10.80
2023-02-23T14:52:25.307Z,-10.99
2023-02-23T14:55:04.602Z,-11.01
2023-02-23T14:57:37.381Z,-11.02
2023-02-23T15:00:16.137Z,-11.06
2023-02-23T15:02:59.359Z,-11.11
2023-02-23T15:05:57.820Z,-11.08
2023-02-23T15:08:28.094Z,-10.86
2023-02-23T15:11:06.909Z,-11.07
2023-02-23T15:13:39.726Z,-11.07
2023-02-23T15:16:08.623Z,-10.99
2023-02-23T15:18:43.604Z,-10.99
2023-02-23T15:21:19.845Z,-11.00
2023-02-23T15:23:50.636Z,-11.13
2023-02-23T15:26:35.079Z,-10.99
2023-02-23T15:29:08.276Z,-10.80
2023-02-23T15:31:35.717Z,-10.69
2023-02-23T15:34:03.371Z,-10.71
2023-02-23T15:36:34.942Z,-10.66
2023-02-23T15:39:07.823Z,-10.53
2023-02-23T15:41:37.722Z,-10.63
2023-02-23T15:44:04.590Z,-10.52
2023-02-23T15:46:33.703Z,-10.46
2023-02-23T15:49:02.216Z,-10.49
2023-02-23T15:51:43.520Z,-10.50
2023-02-23T15:54:34.539Z,-10.68
2023-02-23T15:57:08.662Z,-10.78
2023-02-23T15:59:39.530Z,-10.53
2023-02-23T16:02:16.521Z,-10.69
2023-02-23T16:04:44.497Z,-10.98
2023-02-23T16:07:17.881Z,-10.94
2023-02-23T16:09:52.474Z,-10.97
2023-02-23T16:12:39.756Z,-10.94
2023-02-23T16:15:23.500Z,-10.95
2023-02-23T16:17:57.985Z,-10.73
2023-02-23T16:20:32.972Z,-10.93
2023-02-23T16:23:01.516Z,-10.81
2023-02-23T16:25:30.650Z,-10.92
2023-02-23T16:28:09.659Z,-10.83
2023-02-23T16:30:58.183Z,-10.59
2023-02-23T16:33:32.115Z,-10.73
2023-02-23T16:36:11.209Z,-10.62
2023-02-23T16:38:55.782Z,-10.62
2023-02-23T16:41:23.995Z,-10.60
2023-02-23T16:43:53.344Z,-10.65
2023-02-23T16:46:24.148Z,-10.51
2023-02-23T16:48:53.401Z,-10.66
2023-02-23T16:51:22.221Z,-10.65
2023-02-23T16:53:49.709Z,-10.72
2023-02-23T16:56:21.034Z,-10.64
2023-02-23T16:58:59.192Z,-10.72
2023-02-23T17:01:26.534Z,-10.71
2023-02-23T17:03:53.742Z,-10.83
2023-02-23T17:06:22.952Z,-10.83
2023-02-23T17:08:58.416Z,-11.10
2023-02-23T17:11:26.517Z,-11.06
2023-02-23T17:13:53.605Z,-11.12
2023-02-23T17:16:21.099Z,-11.08
2023-02-23T17:18:48.402Z,-11.30
2023-02-23T17:21:16.632Z,-11.26
2023-02-23T17:23:43.562Z,-11.19
2023-02-23T17:26:11.982Z,-11.24
2023-02-23T17:28:39.669Z,-11.34
2023-02-23T17:31:08.010Z,-11.68
2023-02-23T17:33:36.173Z,-11.45
2023-02-23T17:36:08.268Z,-11.46
2023-02-23T17:38:35.268Z,-11.50
2023-02-23T17:41:10.223Z,-11.61
2023-02-23T17:43:37.429Z,-11.45
2023-02-23T17:46:04.923Z,-11.38
2023-02-23T17:48:32.208Z,-11.44
2023-02-23T17:51:01.281Z,-11.48
2023-02-23T17:53:29.685Z,-11.78
2023-02-23T17:55:57.769Z,-11.64
2023-02-23T17:58:25.188Z,-11.52
2023-02-23T18:00:56.779Z,-11.53
2023-02-23T18:03:24.992Z,-11.43
2023-02-23T18:05:52.030Z,-11.49
2023-02-23T18:08:19.457Z,-11.60
2023-02-23T18:10:53.615Z,-11.63
2023-02-23T18:13:20.833Z,-11.43
2023-02-23T18:15:49.663Z,-11.40
2023-02-23T18:18:22.122Z,-11.39
2023-02-23T18:20:55.322Z,-11.48
2023-02-23T18:23:23.946Z,-11.35
2023-02-23T18:25:51.102Z,-11.32
2023-02-23T18:28:18.861Z,-11.25
2023-02-23T18:30:46.428Z,-11.51
2023-02-23T18:33:14.091Z,-11.27
2023-02-23T18:35:43.876Z,-11.27
2023-02-23T18:38:13.043Z,-11.32
2023-02-23T18:40:43.394Z,-11.39
2023-02-23T18:43:13.337Z,-11.31
2023-02-23T18:45:40.344Z,-11.27
2023-02-23T18:48:07.362Z,-11.32
2023-02-23T18:50:34.248Z,-11.39
2023-02-23T18:53:01.161Z,-11.53
2023-02-23T18:55:30.558Z,-11.50
2023-02-23T18:57:57.637Z,-11.47
2023-02-23T19:00:25.570Z,-11.40
2023-02-23T19:02:52.680Z,-11.33
2023-02-23T19:05:22.351Z,-11.53
2023-02-23T19:07:49.498Z,-11.54
2023-02-23T19:10:17.331Z,-11.74
2023-02-23T19:12:44.491Z,-11.90
2023-02-23T19:15:11.966Z,-11.49
2023-02-23T19:17:39.773Z,-12.00
2023-02-23T19:20:07.233Z,-12.04
2023-02-23T19:22:34.243Z,-11.74
2023-02-23T19:25:01.391Z,-11.81
2023-02-23T19:27:29.980Z,-12.13
2023-02-23T19:29:59.458Z,-12.20
2023-02-23T19:32:26.868Z,-12.33
2023-02-23T19:34:53.831Z,-12.42
2023-02-23T19:37:20.914Z,-12.27
2023-02-23T19:39:47.896Z,-12.36
2023-02-23T19:42:14.922Z,-12.41
2023-02-23T19:44:42.271Z,-12.53
2023-02-23T19:47:09.231Z,-12.58
2023-02-23T19:49:36.122Z,-12.48
2023-02-23T19:52:03.017Z,-12.53
2023-02-23T19:54:29.944Z,-12.54
2023-02-23T19:56:57.813Z,-12.47
2023-02-23T19:59:24.814Z,-12.24
2023-02-23T20:01:52.166Z,-12.25
2023-02-23T20:04:19.178Z,-12.22
2023-02-23T20:06:46.153Z,-12.20
2023-02-23T20:09:14.912Z,-12.10
2023-02-23T20:11:42.035Z,-12.32
2023-02-23T20:14:10.562Z,-12.00
2023-02-23T20:16:37.545Z,-12.22
2023-02-23T20:19:05.141Z,-12.00
2023-02-23T20:21:32.927Z,-12.05
2023-02-23T20:24:00.341Z,-12.01
2023-02-23T20:26:33.848Z,-11.93
2023-02-23T20:29:01.644Z,-11.96
2023-02-23T20:31:33.924Z,-11.92
2023-02-23T20:34:06.567Z,-12.00
2023-02-23T20:36:36.993Z,-12.05
2023-02-23T20:39:04.599Z,-12.01
2023-02-23T20:41:31.609Z,-12.14
2023-02-23T20:43:58.834Z,-11.98
2023-02-23T20:46:25.824Z,-11.79
2023-02-23T20:48:52.739Z,-11.78
2023-02-23T20:51:20.099Z,-11.88
2023-02-23T20:53:48.621Z,-11.70
2023-02-23T20:56:17.746Z,-11.79
2023-02-23T20:58:46.252Z,-11.75
2023-02-23T21:01:20.373Z,-11.76
2023-02-23T21:03:48.802Z,-11.60
2023-02-23T21:06:15.711Z,-11.68
2023-02-23T21:08:42.713Z,-11.61
2023-02-23T21:11:09.637Z,-11.71
2023-02-23T21:13:39.187Z,-11.80
2023-02-23T21:16:07.049Z,-11.68
2023-02-23T21:18:34.127Z,-11.57
2023-02-23T21:21:01.137Z,-11.83
2023-02-23T21:23:28.018Z,-11.72
2023-02-23T21:25:55.025Z,-11.79
2023-02-23T21:28:21.878Z,-12.07
2023-02-23T21:30:49.035Z,-12.26
2023-02-23T21:33:16.060Z,-12.43
2023-02-23T21:35:43.096Z,-12.34
2023-02-23T21:38:09.999Z,-12.28
2023-02-23T21:40:37.183Z,-12.42
2023-02-23T21:43:04.228Z,-12.36
2023-02-23T21:45:31.314Z,-12.33
2023-02-23T21:48:02.627Z,-12.50
2023-02-23T21:50:30.453Z,-12.50
2023-02-23T21:52:57.319Z,-12.71
2023-02-23T21:55:24.500Z,-12.45
2023-02-23T21:57:52.074Z,-12.59
2023-02-23T22:00:19.709Z,-12.44
2023-02-23T22:02:47.014Z,-12.67
2023-02-23T22:05:16.008Z,-12.35
2023-02-23T22:07:51.827Z,-12.45
2023-02-23T22:10:20.984Z,-12.17
2023-02-23T22:12:49.070Z,-12.49
2023-02-23T22:15:16.580Z,-12.51
2023-02-23T22:17:44.501Z,-12.41
2023-02-23T22:20:12.441Z,-12.59
2023-02-23T22:22:39.519Z,-12.55
2023-02-23T22:25:07.749Z,-12.30
2023-02-23T22:27:34.833Z,-12.51
2023-02-23T22:30:02.047Z,-12.25
2023-02-23T22:32:30.107Z,-12.33
2023-02-23T22:34:57.178Z,-12.49
2023-02-23T22:37:24.150Z,-12.32
2023-02-23T22:39:51.126Z,-12.42
2023-02-23T22:42:18.055Z,-12.33
2023-02-23T22:44:44.988Z,-12.26
2023-02-23T22:47:11.907Z,-12.25
2023-02-23T22:49:39.014Z,-12.47
2023-02-23T22:52:05.907Z,-12.25
2023-02-23T22:54:32.881Z,-12.43
2023-02-23T22:56:59.806Z,-12.40
2023-02-23T22:59:27.118Z,-12.15
2023-02-23T23:01:54.224Z,-12.15
2023-02-23T23:04:21.200Z,-12.13
2023-02-23T23:06:48.199Z,-12.27
2023-02-23T23:09:15.385Z,-12.01
2023-02-23T23:11:42.673Z,-11.97
2023-02-23T23:14:11.249Z,-12.03
2023-02-23T23:16:40.447Z,-11.91
2023-02-23T23:19:09.635Z,-11.72
2023-02-23T23:21:37.051Z,-11.89
2023-02-23T23:24:05.574Z,-11.76
2023-02-23T23:26:35.369Z,-11.82
2023-02-23T23:29:04.694Z,-11.96
2023-02-23T23:31:34.034Z,-11.74
2023-02-23T23:34:10.009Z,-11.71
2023-02-23T23:36:39.862Z,-11.87
2023-02-23T23:39:06.792Z,-11.72
2023-02-23T23:41:33.882Z,-11.64
2023-02-23T23:44:01.308Z,-11.96
2023-02-23T23:46:30.772Z,-11.78
2023-02-23T23:49:07.127Z,-11.44
2023-02-23T23:51:36.930Z,-11.58
2023-02-23T23:54:04.665Z,-11.49
2023-02-23T23:56:32.686Z,-11.53
2023-02-23T23:58:59.642Z,-11.25
